Time;durP1;ratioP1;P1;durP2;ratioP2;P2;SDS_P1;SDS_P2;PMS_P1;PMS_P2;Temp;Humidity;BMP_temperature;BMP_pressure;BME280_temperature;BME280_humidity;BME280_pressure;Samples;Min_cycle;Max_cycle;Signal;HPM_P1;HPM_P2
2022/08/06 04:04:15;;;;;;;4.07;1.77;;;18.60;99.90;;;;;;5631233;23;20493;-72
2022/08/06 04:06:43;;;;;;;4.50;2.30;;;18.50;99.90;;;;;;4953282;29;20896;-71
2022/08/06 04:09:09;;;;;;;1.70;1.60;;;18.50;99.90;;;;;;4954848;29;20500;-73
2022/08/06 04:11:36;;;;;;;2.00;1.80;;;18.50;99.90;;;;;;4954879;29;20494;-73
2022/08/06 04:14:03;;;;;;;1.87;1.77;;;18.50;99.90;;;;;;4954343;28;20433;-73
2022/08/06 04:16:30;;;;;;;2.03;1.93;;;18.50;99.90;;;;;;4954251;28;20413;-72
2022/08/06 04:18:56;;;;;;;1.80;1.70;;;18.50;99.90;;;;;;4954207;28;20515;-73
2022/08/06 04:21:23;;;;;;;1.70;1.60;;;18.40;99.90;;;;;;4955286;28;20486;-72
2022/08/06 04:23:51;;;;;;;1.83;1.73;;;18.40;99.90;;;;;;4957570;29;20442;-73
2022/08/06 04:26:22;;;;;;;2.20;2.10;;;18.50;99.90;;;;;;4958209;29;20482;-73
2022/08/06 04:28:50;;;;;;;2.10;1.90;;;18.40;99.90;;;;;;4958254;28;20397;-72
2022/08/06 04:31:17;;;;;;;1.70;1.60;;;18.40;99.90;;;;;;4957754;29;20485;-73
2022/08/06 04:33:45;;;;;;;1.40;1.40;;;18.50;99.90;;;;;;4956305;28;20435;-72
2022/08/06 04:36:11;;;;;;;2.20;1.93;;;18.50;99.90;;;;;;4957904;28;20438;-72
2022/08/06 04:38:37;;;;;;;2.17;1.83;;;18.50;99.90;;;;;;4956780;29;20412;-72
2022/08/06 04:41:03;;;;;;;1.80;1.70;;;18.50;99.90;;;;;;4955972;29;20788;-72
2022/08/06 04:43:30;;;;;;;1.50;1.40;;;18.40;99.90;;;;;;4957415;28;20437;-72
2022/08/06 04:45:56;;;;;;;2.20;1.83;;;18.40;99.90;;;;;;4957648;28;20463;-72
2022/08/06 04:48:23;;;;;;;1.40;1.40;;;18.50;99.90;;;;;;4956496;29;20409;-71
2022/08/06 04:50:49;;;;;;;1.80;1.70;;;18.50;99.90;;;;;;4957759;28;20173;-73
2022/08/06 04:53:18;;;;;;;2.37;2.17;;;18.50;99.90;;;;;;4957149;28;20446;-72
2022/08/06 04:55:45;;;;;;;1.97;1.87;;;18.50;99.90;;;;;;4956036;29;20429;-72
2022/08/06 04:58:12;;;;;;;3.00;1.80;;;18.40;99.90;;;;;;4957531;29;20415;-72
2022/08/06 05:00:40;;;;;;;4.83;1.97;;;18.40;99.90;;;;;;4957565;29;20504;-73
2022/08/06 05:03:06;;;;;;;1.93;1.83;;;18.50;99.90;;;;;;4957021;29;20440;-72
2022/08/06 05:05:49;;;;;;;1.93;1.83;;;18.50;99.90;;;;;;4957194;29;20496;-72
2022/08/06 05:08:15;;;;;;;1.77;1.63;;;18.40;99.90;;;;;;4957187;29;20645;-73
2022/08/06 05:10:54;;;;;;;4.10;1.87;;;18.40;99.90;;;;;;4957273;28;20433;-74
2022/08/06 05:13:22;;;;;;;1.67;1.57;;;18.30;99.90;;;;;;4957027;28;20404;-72
2022/08/06 05:15:53;;;;;;;2.13;2.03;;;18.40;99.90;;;;;;4956058;29;20414;-74
2022/08/06 05:18:29;;;;;;;1.87;1.77;;;18.40;99.90;;;;;;4957095;28;20464;-72
2022/08/06 05:20:55;;;;;;;1.57;1.47;;;18.40;99.90;;;;;;4957083;28;20774;-73
2022/08/06 05:23:40;;;;;;;1.87;1.77;;;18.40;99.90;;;;;;4956348;28;20442;-72
2022/08/06 05:26:07;;;;;;;1.97;1.87;;;18.50;99.90;;;;;;4956766;29;20467;-73
2022/08/06 05:28:33;;;;;;;2.93;2.70;;;18.60;99.90;;;;;;4957085;28;20505;-72
2022/08/06 05:30:58;;;;;;;2.17;1.97;;;18.70;99.90;;;;;;4956635;29;20503;-72
2022/08/06 05:33:32;;;;;;;3.20;1.60;;;18.70;99.90;;;;;;4955787;28;20489;-73
2022/08/06 05:35:59;;;;;;;2.00;1.47;;;18.70;99.90;;;;;;4955165;29;20461;-72
2022/08/06 05:38:26;;;;;;;2.47;2.27;;;18.70;99.90;;;;;;4956697;29;20426;-71
2022/08/06 05:40:52;;;;;;;1.97;1.87;;;18.70;99.90;;;;;;4956922;29;20840;-71
2022/08/06 05:43:18;;;;;;;2.23;1.90;;;18.70;99.90;;;;;;4956252;29;20424;-71
2022/08/06 05:45:47;;;;;;;5.07;1.90;;;18.70;99.90;;;;;;4956365;29;20476;-73
2022/08/06 05:48:15;;;;;;;2.03;1.93;;;18.70;99.90;;;;;;4956565;29;20412;-71
2022/08/06 05:50:48;;;;;;;1.80;1.70;;;18.70;99.90;;;;;;4956128;29;20480;-71
2022/08/06 05:53:37;;;;;;;2.30;2.10;;;18.70;99.90;;;;;;4956001;28;20505;-71
2022/08/06 05:56:12;;;;;;;2.17;2.07;;;18.70;99.90;;;;;;4955996;29;20457;-72
2022/08/06 05:58:59;;;;;;;1.87;1.77;;;18.60;99.90;;;;;;4956944;28;20415;-70
2022/08/06 06:01:26;;;;;;;2.30;2.00;;;18.60;99.90;;;;;;4956583;28;20419;-71
2022/08/06 06:03:56;;;;;;;1.90;1.80;;;18.60;99.90;;;;;;4954983;28;20970;-72
2022/08/06 06:06:23;;;;;;;1.80;1.70;;;18.60;99.90;;;;;;4955812;28;20767;-71
2022/08/06 06:08:48;;;;;;;1.47;1.37;;;18.70;99.90;;;;;;4954884;28;20768;-72
2022/08/06 06:11:16;;;;;;;1.90;1.80;;;18.80;99.90;;;;;;4938855;28;20479;-72
2022/08/06 06:13:43;;;;;;;2.80;2.60;;;18.90;99.90;;;;;;4942969;29;20455;-71
2022/08/06 06:16:23;;;;;;;2.60;1.80;;;18.90;99.90;;;;;;4954032;28;20427;-72
2022/08/06 06:18:56;;;;;;;2.03;1.93;;;19.00;99.90;;;;;;4950272;29;21862;-71
2022/08/06 06:21:43;;;;;;;2.47;2.20;;;19.10;99.90;;;;;;4952951;29;20942;-71
2022/08/06 06:24:18;;;;;;;2.37;2.27;;;19.20;99.90;;;;;;4951567;28;20448;-72
2022/08/06 06:27:07;;;;;;;2.00;1.90;;;19.20;99.90;;;;;;4950190;29;20479;-73
2022/08/06 06:29:43;;;;;;;2.20;2.10;;;19.20;99.90;;;;;;4949685;29;20420;-74
2022/08/06 06:32:26;;;;;;;1.83;1.73;;;19.20;99.90;;;;;;4952993;29;20833;-73
2022/08/06 06:34:54;;;;;;;1.80;1.70;;;19.30;99.90;;;;;;4955389;28;20459;-73
2022/08/06 06:37:23;;;;;;;2.03;1.83;;;19.30;99.90;;;;;;4954384;29;20506;-72
2022/08/06 06:39:59;;;;;;;1.90;1.80;;;19.40;99.90;;;;;;4954984;28;20424;-72
2022/08/06 06:42:45;;;;;;;1.70;1.57;;;19.50;99.90;;;;;;4955385;28;20420;-73
2022/08/06 06:45:16;;;;;;;3.13;2.50;;;19.70;99.90;;;;;;4954437;28;20510;-72
2022/08/06 06:47:57;;;;;;;2.60;2.00;;;19.80;99.90;;;;;;4955084;28;20448;-70
2022/08/06 06:50:26;;;;;;;1.80;1.70;;;19.90;99.90;;;;;;4954912;28;20412;-70
2022/08/06 06:52:54;;;;;;;2.07;1.97;;;20.00;99.90;;;;;;4954684;28;20427;-70
2022/08/06 06:55:32;;;;;;;2.03;1.93;;;20.20;99.60;;;;;;4954912;28;20480;-71
2022/08/06 06:58:38;;;;;;;2.17;2.07;;;20.20;99.30;;;;;;4955157;28;20919;-72
2022/08/06 07:01:08;;;;;;;2.30;2.10;;;20.20;99.00;;;;;;4950987;29;20806;-73
2022/08/06 07:03:36;;;;;;;2.30;2.20;;;20.10;99.40;;;;;;4953225;29;20474;-71
2022/08/06 07:06:05;;;;;;;1.93;1.80;;;20.10;99.40;;;;;;4946819;28;20464;-71
2022/08/06 07:08:33;;;;;;;2.10;2.00;;;20.20;99.60;;;;;;4954885;28;20432;-71
2022/08/06 07:11:00;;;;;;;2.00;1.77;;;20.30;99.10;;;;;;4953544;29;20823;-74
2022/08/06 07:13:27;;;;;;;1.97;1.87;;;20.40;98.80;;;;;;4954781;28;20432;-72
2022/08/06 07:15:54;;;;;;;1.57;1.47;;;20.40;98.80;;;;;;4954859;28;20495;-71
2022/08/06 07:18:21;;;;;;;2.07;1.97;;;20.60;98.70;;;;;;4955468;28;20459;-70
2022/08/06 07:20:47;;;;;;;2.20;2.00;;;20.70;98.00;;;;;;4954525;28;20938;-69
2022/08/06 07:23:16;;;;;;;1.80;1.70;;;20.80;98.00;;;;;;4953512;28;20440;-71
2022/08/06 07:25:44;;;;;;;2.00;1.90;;;20.80;97.90;;;;;;4954279;29;20803;-71
2022/08/06 07:28:12;;;;;;;1.87;1.70;;;21.00;97.50;;;;;;4954745;29;20593;-71
2022/08/06 07:30:41;;;;;;;1.83;1.73;;;21.00;97.50;;;;;;4954547;28;20498;-70
2022/08/06 07:33:08;;;;;;;2.20;2.10;;;21.00;97.30;;;;;;4953871;28;20840;-70
2022/08/06 07:35:35;;;;;;;2.17;2.07;;;21.00;97.10;;;;;;4954242;28;20496;-70
2022/08/06 07:38:03;;;;;;;3.10;1.90;;;20.90;97.10;;;;;;4954588;28;20433;-70
2022/08/06 07:40:43;;;;;;;5.30;2.20;;;20.90;97.10;;;;;;4953339;28;20798;-70
2022/08/06 07:43:15;;;;;;;2.20;2.10;;;21.00;97.10;;;;;;4953344;28;20432;-71
2022/08/06 07:45:40;;;;;;;1.73;1.63;;;21.10;97.00;;;;;;4952721;28;20849;-69
2022/08/06 07:48:10;;;;;;;1.80;1.70;;;21.30;96.90;;;;;;4951623;29;20533;-69
2022/08/06 07:50:36;;;;;;;2.87;2.40;;;21.50;96.60;;;;;;4953627;29;20173;-69
2022/08/06 07:53:02;;;;;;;1.97;1.87;;;21.80;96.00;;;;;;4954248;29;20448;-71
2022/08/06 07:55:29;;;;;;;2.00;1.90;;;22.30;95.30;;;;;;4955167;28;20412;-71
2022/08/06 07:57:57;;;;;;;2.03;1.93;;;22.90;94.30;;;;;;4957787;29;20447;-70
2022/08/06 08:00:23;;;;;;;1.80;1.70;;;23.40;93.40;;;;;;4958478;28;20523;-71
2022/08/06 08:08:25;;;;;;;1.60;1.50;;;25.30;90.60;;;;;;4958550;29;20555;-71
2022/08/06 08:10:53;;;;;;;2.00;1.90;;;26.20;87.40;;;;;;4958182;28;20430;-69
2022/08/06 08:13:20;;;;;;;2.03;1.93;;;26.10;84.80;;;;;;4957360;28;20432;-69
2022/08/06 08:15:47;;;;;;;1.97;1.87;;;25.80;85.00;;;;;;4958504;29;20411;-71
2022/08/06 08:18:14;;;;;;;1.70;1.60;;;;;;;;;;4958017;29;20414;-71
2022/08/06 08:20:42;;;;;;;1.70;1.63;;;25.50;86.20;;;;;;4957618;28;20486;-70
2022/08/06 08:23:11;;;;;;;1.87;1.77;;;25.70;85.60;;;;;;4955981;28;20436;-69
2022/08/06 08:25:37;;;;;;;2.10;1.90;;;26.30;83.70;;;;;;4958041;28;20455;-71
2022/08/06 08:28:04;;;;;;;2.50;2.30;;;26.90;80.80;;;;;;4957935;28;20379;-69
2022/08/06 08:30:30;;;;;;;2.00;1.90;;;27.40;80.50;;;;;;4957893;28;20841;-70
2022/08/06 08:32:56;;;;;;;2.20;2.00;;;28.10;77.30;;;;;;4957386;28;20424;-69
2022/08/06 08:35:22;;;;;;;2.50;2.30;;;28.60;74.30;;;;;;4957374;28;20448;-69
2022/08/06 08:37:47;;;;;;;2.20;2.10;;;28.70;73.30;;;;;;4957959;29;20823;-68
2022/08/06 08:40:13;;;;;;;1.90;1.80;;;28.90;72.80;;;;;;4957789;29;20208;-69
2022/08/06 08:42:48;;;;;;;3.40;2.10;;;29.30;71.20;;;;;;4957314;29;20184;-69
2022/08/06 08:45:16;;;;;;;1.93;1.83;;;29.50;69.70;;;;;;4957270;29;20204;-70
2022/08/06 08:47:50;;;;;;;2.53;2.43;;;29.70;67.20;;;;;;4957707;29;20379;-70
2022/08/06 08:50:18;;;;;;;3.03;2.30;;;29.80;66.50;;;;;;4957063;29;20893;-69
2022/08/06 08:52:44;;;;;;;2.10;2.00;;;29.60;67.40;;;;;;4956977;28;20497;-70
2022/08/06 08:55:12;;;;;;;2.20;2.10;;;29.30;67.20;;;;;;4956091;28;20415;-69
2022/08/06 08:57:38;;;;;;;1.60;1.50;;;28.80;67.70;;;;;;4957475;28;20404;-69
2022/08/06 09:00:06;;;;;;;2.03;1.93;;;28.00;69.00;;;;;;4957193;28;20406;-70
2022/08/06 09:02:32;;;;;;;2.20;2.10;;;27.50;71.70;;;;;;4956808;28;20260;-71
2022/08/06 09:04:58;;;;;;;2.00;1.90;;;27.80;71.20;;;;;;4956550;28;20583;-70
2022/08/06 09:07:26;;;;;;;1.80;1.70;;;27.60;70.00;;;;;;4955990;28;20407;-69
2022/08/06 09:09:52;;;;;;;2.23;2.13;;;27.40;69.90;;;;;;4956927;29;20488;-69
2022/08/06 09:12:19;;;;;;;2.00;1.90;;;27.20;69.20;;;;;;4956908;29;20375;-68
2022/08/06 09:14:46;;;;;;;2.20;2.10;;;27.10;70.40;;;;;;4956858;29;20428;-70
2022/08/06 09:17:12;;;;;;;2.20;2.07;;;27.40;70.10;;;;;;4956927;29;20516;-68
2022/08/06 09:19:38;;;;;;;2.07;1.97;;;28.10;69.40;;;;;;4956516;29;20920;-70
2022/08/06 09:22:04;;;;;;;2.23;2.10;;;28.20;68.50;;;;;;4956932;28;20380;-71
2022/08/06 09:24:30;;;;;;;2.50;2.30;;;27.80;68.30;;;;;;4956244;28;20463;-68
2022/08/06 09:27:05;;;;;;;2.53;2.33;;;27.10;69.20;;;;;;4956356;28;20264;-67
2022/08/06 09:29:31;;;;;;;2.40;2.30;;;26.30;70.60;;;;;;4956637;28;20379;-68
2022/08/06 09:31:57;;;;;;;2.37;2.17;;;25.70;71.20;;;;;;4956750;28;20897;-70
2022/08/06 09:34:38;;;;;;;2.20;2.07;;;25.10;73.10;;;;;;4956255;28;20433;-68
2022/08/06 09:37:05;;;;;;;2.47;2.33;;;24.70;75.20;;;;;;4956714;28;20383;-67
2022/08/06 09:39:41;;;;;;;1.87;1.77;;;24.30;75.60;;;;;;4956661;28;20450;-70
2022/08/06 09:42:07;;;;;;;1.90;1.80;;;24.30;77.50;;;;;;4956365;28;20429;-68
2022/08/06 09:44:34;;;;;;;1.60;1.60;;;25.10;76.50;;;;;;4956026;29;20456;-67
2022/08/06 09:47:00;;;;;;;2.20;2.10;;;25.50;74.80;;;;;;4956398;28;20470;-70
2022/08/06 09:49:27;;;;;;;2.40;2.20;;;25.60;74.10;;;;;;4956629;29;20411;-68
2022/08/06 09:52:12;;;;;;;2.30;2.20;;;25.60;73.50;;;;;;4956533;29;20407;-69
2022/08/06 09:54:38;;;;;;;2.80;2.60;;;25.50;73.70;;;;;;4955886;29;20483;-67
2022/08/06 09:57:03;;;;;;;2.57;2.37;;;25.10;73.90;;;;;;4956537;28;20421;-67
2022/08/06 09:59:42;;;;;;;4.67;2.27;;;24.90;74.90;;;;;;4956533;28;20767;-68
2022/08/06 10:02:17;;;;;;;2.23;2.13;;;24.80;75.60;;;;;;4956532;28;20176;-69
2022/08/06 10:04:44;;;;;;;5.63;2.00;;;24.70;74.70;;;;;;4956183;28;20460;-69
2022/08/06 10:07:10;;;;;;;2.00;1.90;;;24.70;75.00;;;;;;4956456;28;20417;-69
2022/08/06 10:09:37;;;;;;;2.17;2.07;;;24.80;75.20;;;;;;4955957;28;20424;-69
2022/08/06 10:12:17;;;;;;;2.33;2.13;;;25.10;75.30;;;;;;4956006;29;20384;-69
2022/08/06 10:14:43;;;;;;;2.10;2.00;;;25.20;75.20;;;;;;4955821;29;20426;-70
2022/08/06 10:17:19;;;;;;;2.57;2.37;;;25.10;75.10;;;;;;4956411;29;20866;-68
2022/08/06 10:19:47;;;;;;;1.97;1.87;;;25.00;75.50;;;;;;4956098;28;20571;-68
2022/08/06 10:22:17;;;;;;;2.23;2.13;;;24.80;75.80;;;;;;4955825;29;20491;-68
2022/08/06 10:24:45;;;;;;;2.50;2.30;;;24.70;77.00;;;;;;4955115;29;20465;-69
2022/08/06 10:27:13;;;;;;;2.10;1.90;;;24.50;76.10;;;;;;4956010;29;20397;-71
2022/08/06 10:29:53;;;;;;;2.00;1.90;;;24.30;76.90;;;;;;4955722;29;20412;-71
2022/08/06 10:32:32;;;;;;;2.40;2.20;;;24.20;76.40;;;;;;4955110;29;20495;-71
2022/08/06 10:35:02;;;;;;;2.00;1.90;;;24.00;76.50;;;;;;4955694;28;20428;-69
2022/08/06 10:37:31;;;;;;;2.00;1.87;;;23.90;76.40;;;;;;4955977;29;20420;-69
2022/08/06 10:40:00;;;;;;;1.67;1.57;;;23.90;77.50;;;;;;4955733;28;20824;-71
2022/08/06 10:42:26;;;;;;;1.73;1.63;;;24.50;78.60;;;;;;4955285;28;20461;-70
2022/08/06 10:44:53;;;;;;;2.03;1.87;;;25.50;75.30;;;;;;4955670;28;20468;-69
2022/08/06 10:47:20;;;;;;;1.73;1.63;;;26.40;72.20;;;;;;4955278;28;20467;-71
2022/08/06 10:49:46;;;;;;;2.20;2.10;;;27.20;70.70;;;;;;4955701;29;20978;-70
2022/08/06 10:52:13;;;;;;;2.10;2.00;;;27.90;67.70;;;;;;4955327;29;20416;-69
2022/08/06 10:54:40;;;;;;;2.23;2.13;;;28.70;66.10;;;;;;4955489;29;20439;-69
2022/08/06 10:57:08;;;;;;;2.00;1.90;;;29.50;62.50;;;;;;4955568;28;20408;-69
2022/08/06 10:59:34;;;;;;;2.47;2.37;;;30.20;60.00;;;;;;4955441;29;20777;-69
2022/08/06 11:02:13;;;;;;;2.20;2.10;;;30.90;58.60;;;;;;4955170;28;20402;-68
2022/08/06 11:05:01;;;;;;;2.47;2.37;;;31.50;57.60;;;;;;4955196;28;20533;-71
2022/08/06 11:07:59;;;;;;;2.30;2.10;;;31.40;57.20;;;;;;4955097;28;20408;-69
2022/08/06 11:10:44;;;;;;;2.17;2.07;;;30.80;57.50;;;;;;4953758;29;20412;-69
2022/08/06 11:13:31;;;;;;;2.40;2.10;;;29.80;58.70;;;;;;4955154;28;20820;-72
2022/08/06 11:15:57;;;;;;;2.23;2.03;;;29.10;59.10;;;;;;4955487;28;20828;-69
2022/08/06 11:18:22;;;;;;;2.40;2.30;;;28.40;59.70;;;;;;4954107;29;20444;-68
2022/08/06 11:20:58;;;;;;;2.60;2.40;;;27.70;60.90;;;;;;4955380;28;20421;-69
2022/08/06 11:23:28;;;;;;;2.00;1.90;;;27.10;62.30;;;;;;4954665;29;20234;-70
2022/08/06 11:26:00;;;;;;;2.07;1.97;;;26.70;63.70;;;;;;4955325;28;20467;-69
2022/08/06 11:28:29;;;;;;;2.20;2.10;;;26.30;65.40;;;;;;4954880;29;20435;-69
2022/08/06 11:30:57;;;;;;;2.27;2.17;;;26.20;65.50;;;;;;4955731;28;20411;-71
2022/08/06 11:33:32;;;;;;;1.80;1.70;;;26.00;66.00;;;;;;4958730;28;20430;-71
2022/08/06 11:36:05;;;;;;;2.17;2.07;;;25.90;66.20;;;;;;4959437;28;20414;-71
2022/08/06 11:38:42;;;;;;;2.43;2.30;;;25.90;67.50;;;;;;4959247;28;20715;-71
2022/08/06 11:41:10;;;;;;;2.20;2.10;;;26.00;65.70;;;;;;4959059;28;20412;-71
2022/08/06 11:43:51;;;;;;;2.00;1.90;;;26.10;66.30;;;;;;4958345;28;20453;-69
2022/08/06 11:46:20;;;;;;;2.27;2.17;;;26.10;66.40;;;;;;4959059;29;20459;-70
2022/08/06 11:49:03;;;;;;;2.00;1.90;;;26.00;66.20;;;;;;4958807;29;20382;-68
2022/08/06 11:51:53;;;;;;;2.00;1.90;;;26.00;67.70;;;;;;4958814;29;20417;-70
2022/08/06 11:54:21;;;;;;;2.20;2.10;;;25.90;67.20;;;;;;4957886;29;20535;-67
2022/08/06 11:57:01;;;;;;;5.50;2.17;;;25.90;67.20;;;;;;4958220;29;20408;-69
2022/08/06 11:59:38;;;;;;;2.33;2.13;;;25.90;68.40;;;;;;4959040;28;20958;-69
2022/08/06 12:02:13;;;;;;;2.20;2.10;;;25.90;67.50;;;;;;4958667;28;20747;-68
2022/08/06 12:04:47;;;;;;;2.00;1.90;;;25.80;67.00;;;;;;4957964;28;20468;-70
2022/08/06 12:07:20;;;;;;;2.23;2.13;;;25.70;65.70;;;;;;4958447;28;20417;-69
2022/08/06 12:10:07;;;;;;;2.33;2.13;;;25.50;67.40;;;;;;4958481;28;20371;-70
2022/08/06 12:12:37;;;;;;;2.13;2.03;;;25.40;68.10;;;;;;4937471;29;20484;-68
2022/08/06 12:15:27;;;;;;;1.80;1.67;;;25.30;67.80;;;;;;4938922;29;20480;-69
2022/08/06 12:17:59;;;;;;;2.20;2.10;;;25.30;67.90;;;;;;4938994;29;20432;-69
2022/08/06 12:20:43;;;;;;;2.00;1.90;;;25.30;67.20;;;;;;4939126;29;20413;-67
2022/08/06 12:23:12;;;;;;;2.10;2.00;;;25.20;67.50;;;;;;4938717;29;20405;-68
2022/08/06 12:25:46;;;;;;;2.43;2.00;;;25.20;68.60;;;;;;4947721;29;20887;-68
2022/08/06 12:28:17;;;;;;;2.90;2.20;;;25.20;69.00;;;;;;4955306;29;20420;-69
2022/08/06 12:30:51;;;;;;;2.73;2.13;;;25.30;67.40;;;;;;4958099;28;20392;-71
2022/08/06 12:33:18;;;;;;;2.00;1.90;;;25.40;67.20;;;;;;4957583;28;20491;-72
2022/08/06 12:36:00;;;;;;;2.23;2.13;;;25.50;68.10;;;;;;4958072;28;20400;-69
2022/08/06 12:38:29;;;;;;;2.10;2.00;;;25.60;66.20;;;;;;4958578;28;20427;-69
2022/08/06 12:40:57;;;;;;;2.37;2.20;;;25.90;65.70;;;;;;4957550;28;20541;-69
2022/08/06 12:43:24;;;;;;;1.70;1.60;;;26.00;64.50;;;;;;4957308;28;20480;-70
2022/08/06 12:45:57;;;;;;;1.80;1.70;;;26.10;63.90;;;;;;4957723;29;21008;-69
2022/08/06 12:48:23;;;;;;;2.57;2.03;;;26.00;64.50;;;;;;4957931;29;20400;-69
2022/08/06 12:50:48;;;;;;;2.00;1.90;;;25.80;64.80;;;;;;4956534;29;20472;-70
2022/08/06 12:53:16;;;;;;;2.33;2.13;;;25.50;65.50;;;;;;4956947;28;20184;-70
2022/08/06 12:55:47;;;;;;;2.10;2.00;;;25.20;66.80;;;;;;4957979;28;20184;-70
2022/08/06 12:58:19;;;;;;;2.20;2.10;;;25.00;67.00;;;;;;4957945;28;20922;-70
2022/08/06 13:00:49;;;;;;;1.93;1.70;;;24.90;67.00;;;;;;4957456;28;20439;-69
2022/08/06 13:03:17;;;;;;;2.07;1.97;;;25.00;66.90;;;;;;4957139;28;20420;-70
2022/08/06 13:05:44;;;;;;;2.33;2.10;;;25.00;68.00;;;;;;4957253;28;20871;-69
2022/08/06 13:08:11;;;;;;;1.80;1.70;;;25.10;67.10;;;;;;4957298;28;20433;-70
2022/08/06 13:10:37;;;;;;;1.80;1.70;;;25.00;66.30;;;;;;4957746;29;20400;-69
2022/08/06 13:13:05;;;;;;;1.73;1.63;;;24.90;65.80;;;;;;4956998;29;20484;-70
2022/08/06 13:15:31;;;;;;;1.63;1.63;;;24.80;65.50;;;;;;4957233;29;20175;-69
2022/08/06 13:18:05;;;;;;;1.60;1.60;;;24.80;66.70;;;;;;4957197;29;20470;-70
2022/08/06 13:20:42;;;;;;;2.13;1.80;;;24.80;66.30;;;;;;4957065;29;20431;-70
2022/08/06 13:23:09;;;;;;;1.90;1.80;;;24.80;65.70;;;;;;4956806;28;20471;-71
2022/08/06 13:25:50;;;;;;;2.73;2.20;;;24.80;65.90;;;;;;4957240;28;20441;-67
2022/08/06 13:28:21;;;;;;;1.87;1.77;;;24.90;66.00;;;;;;4956910;28;20405;-68
2022/08/06 13:30:47;;;;;;;1.90;1.80;;;24.80;66.00;;;;;;4956735;28;20918;-70
2022/08/06 13:33:21;;;;;;;2.27;2.13;;;24.80;65.80;;;;;;4956655;28;20421;-69
2022/08/06 13:35:52;;;;;;;1.97;1.80;;;24.80;65.60;;;;;;4957059;28;20419;-71
2022/08/06 13:38:35;;;;;;;2.03;1.90;;;24.70;67.30;;;;;;4956970;28;20419;-70
2022/08/06 13:41:01;;;;;;;2.17;2.07;;;24.80;69.30;;;;;;4957036;28;20827;-69
2022/08/06 13:43:39;;;;;;;2.07;1.97;;;25.00;68.90;;;;;;4956252;28;20752;-67
2022/08/06 13:46:16;;;;;;;2.10;1.90;;;25.20;66.80;;;;;;4956382;28;20860;-70
2022/08/06 13:48:47;;;;;;;1.90;1.80;;;25.40;65.40;;;;;;4956834;28;21043;-68
2022/08/06 13:51:14;;;;;;;1.90;1.80;;;25.40;64.70;;;;;;4957027;29;20458;-72
2022/08/06 13:53:40;;;;;;;2.53;1.73;;;25.30;64.70;;;;;;4955784;28;20811;-68
2022/08/06 13:56:06;;;;;;;1.80;1.70;;;25.20;64.70;;;;;;4956671;29;20409;-69
2022/08/06 13:58:31;;;;;;;3.00;1.80;;;25.10;65.10;;;;;;4956471;29;20187;-69
2022/08/06 14:00:57;;;;;;;1.50;1.40;;;25.00;65.10;;;;;;4955929;29;20179;-70
2022/08/06 14:03:24;;;;;;;1.30;1.30;;;25.00;65.70;;;;;;4956037;29;20189;-70
2022/08/06 14:05:50;;;;;;;1.70;1.63;;;25.10;64.50;;;;;;4956297;29;20274;-68
2022/08/06 14:08:16;;;;;;;1.90;1.80;;;25.10;65.00;;;;;;4956432;29;20915;-70
2022/08/06 14:10:42;;;;;;;2.00;1.90;;;25.20;66.00;;;;;;4956587;29;20748;-70
2022/08/06 14:13:16;;;;;;;1.70;1.60;;;25.20;64.80;;;;;;4955531;28;20177;-70
2022/08/06 14:15:47;;;;;;;1.63;1.53;;;25.20;63.70;;;;;;4956400;28;20169;-68
2022/08/06 14:18:13;;;;;;;5.20;1.97;;;25.30;65.10;;;;;;4956158;28;20427;-69
2022/08/06 14:20:39;;;;;;;2.27;1.70;;;25.30;63.80;;;;;;4955422;29;20990;-68
2022/08/06 14:23:05;;;;;;;1.93;1.83;;;25.30;62.60;;;;;;4955602;28;20515;-70
2022/08/06 14:25:31;;;;;;;2.00;1.80;;;25.40;64.10;;;;;;4955944;28;20228;-69
2022/08/06 14:27:57;;;;;;;2.50;1.83;;;25.40;62.80;;;;;;4955798;28;20542;-70
2022/08/06 14:30:23;;;;;;;2.00;1.90;;;25.50;62.50;;;;;;4956075;29;20836;-69
2022/08/06 14:32:49;;;;;;;2.00;1.90;;;25.50;61.30;;;;;;4955642;29;20203;-70
2022/08/06 14:35:16;;;;;;;1.83;1.73;;;25.40;61.90;;;;;;4955721;29;20923;-69
2022/08/06 14:37:43;;;;;;;2.50;1.93;;;25.30;62.00;;;;;;4954659;29;20387;-68
2022/08/06 14:40:10;;;;;;;1.73;1.63;;;25.20;62.60;;;;;;4955742;29;20415;-69
2022/08/06 14:45:19;;;;;;;1.73;1.63;;;25.30;63.00;;;;;;4955935;28;20950;-70
2022/08/06 14:47:45;;;;;;;1.63;1.53;;;25.30;63.10;;;;;;4955582;28;20441;-69
2022/08/06 14:50:11;;;;;;;2.70;1.70;;;25.30;65.60;;;;;;4955828;28;20196;-71
2022/08/06 14:52:36;;;;;;;1.60;1.50;;;25.40;64.80;;;;;;4954058;29;20172;-70
2022/08/06 14:55:02;;;;;;;1.40;1.40;;;25.50;62.20;;;;;;4955443;28;20193;-71
2022/08/06 14:57:28;;;;;;;1.47;1.47;;;25.50;61.20;;;;;;4954497;28;20173;-69
2022/08/06 14:59:54;;;;;;;1.60;1.50;;;25.50;60.90;;;;;;4955387;29;20410;-68
2022/08/06 15:02:21;;;;;;;1.80;1.70;;;25.40;61.00;;;;;;4955373;29;20177;-69
2022/08/06 15:04:46;;;;;;;1.83;1.73;;;25.40;60.40;;;;;;4955182;28;21289;-69
2022/08/06 15:07:12;;;;;;;1.63;1.53;;;25.30;60.40;;;;;;4954808;29;20414;-69
2022/08/06 15:09:39;;;;;;;1.80;1.60;;;25.30;60.00;;;;;;4955542;29;20218;-71
2022/08/06 15:12:05;;;;;;;1.63;1.53;;;25.30;60.60;;;;;;4954628;29;20176;-68
2022/08/06 15:14:31;;;;;;;1.53;1.43;;;25.30;59.80;;;;;;4954877;28;20860;-70
2022/08/06 15:16:57;;;;;;;1.40;1.30;;;25.30;59.80;;;;;;4955798;28;20500;-68
2022/08/06 15:19:22;;;;;;;1.70;1.60;;;25.30;59.50;;;;;;4955557;28;20181;-70
2022/08/06 15:21:48;;;;;;;1.77;1.30;;;25.30;59.70;;;;;;4955474;28;20260;-68
2022/08/06 15:24:14;;;;;;;1.40;1.30;;;25.30;59.80;;;;;;4955186;28;20192;-71
2022/08/06 15:26:41;;;;;;;2.03;1.93;;;25.30;60.80;;;;;;4955358;28;20945;-70
2022/08/06 15:29:06;;;;;;;1.60;1.60;;;25.30;60.80;;;;;;4955337;29;20503;-69
2022/08/06 15:31:33;;;;;;;1.77;1.67;;;25.20;60.60;;;;;;4955283;29;20938;-70
2022/08/06 15:33:59;;;;;;;2.83;1.70;;;25.20;60.20;;;;;;4954815;29;20280;-70
2022/08/06 15:36:25;;;;;;;2.27;1.90;;;25.30;61.00;;;;;;4955608;29;20794;-71
2022/08/06 15:38:53;;;;;;;1.70;1.60;;;25.30;61.20;;;;;;4955616;29;20541;-69
2022/08/06 15:41:20;;;;;;;1.60;1.50;;;25.30;60.90;;;;;;4954800;29;20436;-70
2022/08/06 15:43:46;;;;;;;1.60;1.50;;;25.20;61.10;;;;;;4954928;28;20444;-69
2022/08/06 15:46:13;;;;;;;1.50;1.50;;;25.20;60.90;;;;;;4955182;28;20459;-69
2022/08/06 15:48:38;;;;;;;1.47;1.47;;;25.20;60.20;;;;;;4955142;28;20165;-69
2022/08/06 15:51:04;;;;;;;1.43;1.40;;;25.20;60.20;;;;;;4956024;28;20435;-69
2022/08/06 15:53:30;;;;;;;2.20;1.50;;;25.20;59.90;;;;;;4954731;28;20620;-67
2022/08/06 15:55:55;;;;;;;1.50;1.50;;;25.20;60.20;;;;;;4955896;28;20183;-71
2022/08/06 15:58:21;;;;;;;1.60;1.50;;;25.20;60.00;;;;;;4954867;29;20190;-69
2022/08/06 16:00:47;;;;;;;1.60;1.50;;;25.30;60.40;;;;;;4953931;29;20181;-71
2022/08/06 16:03:12;;;;;;;1.60;1.50;;;25.30;60.10;;;;;;4954648;29;20181;-69
2022/08/06 16:05:41;;;;;;;1.40;1.40;;;25.30;59.90;;;;;;4954760;29;20251;-68
2022/08/06 16:08:09;;;;;;;1.63;1.53;;;25.30;60.00;;;;;;4955177;29;20223;-69
2022/08/06 16:10:40;;;;;;;1.70;1.60;;;25.20;60.60;;;;;;4954431;29;20442;-68
2022/08/06 16:13:05;;;;;;;1.47;1.47;;;25.20;59.70;;;;;;4954384;28;20416;-67
2022/08/06 16:15:31;;;;;;;1.30;1.20;;;25.10;59.90;;;;;;4954990;28;20413;-70
2022/08/06 16:17:56;;;;;;;1.70;1.60;;;25.10;60.30;;;;;;4956799;28;20188;-70
2022/08/06 16:20:22;;;;;;;1.50;1.47;;;25.10;59.20;;;;;;4958374;28;20173;-68
2022/08/06 16:22:49;;;;;;;1.70;1.60;;;25.10;59.30;;;;;;4957943;28;20261;-69
2022/08/06 16:25:16;;;;;;;1.23;1.23;;;25.10;59.50;;;;;;4957769;28;20678;-68
2022/08/06 16:27:41;;;;;;;2.97;1.80;;;25.10;59.30;;;;;;4958297;29;20433;-69
2022/08/06 16:30:08;;;;;;;1.60;1.50;;;25.10;59.30;;;;;;4958114;29;20434;-69
2022/08/06 16:32:33;;;;;;;2.00;1.70;;;25.10;59.50;;;;;;4956916;29;20195;-68
2022/08/06 16:34:59;;;;;;;2.07;1.83;;;25.10;59.30;;;;;;4957997;28;20414;-70
2022/08/06 16:37:27;;;;;;;1.20;1.20;;;25.20;59.00;;;;;;4958099;28;20531;-70
2022/08/06 16:39:53;;;;;;;1.77;1.13;;;25.10;58.70;;;;;;4957994;28;20210;-68
2022/08/06 16:42:19;;;;;;;1.20;1.20;;;25.10;58.50;;;;;;4957575;28;20914;-69
2022/08/06 16:44:45;;;;;;;1.63;1.53;;;25.10;58.40;;;;;;4956629;28;20542;-69
2022/08/06 16:47:10;;;;;;;1.60;1.50;;;25.00;58.50;;;;;;4957504;28;20236;-67
2022/08/06 16:49:36;;;;;;;1.50;1.40;;;25.00;58.70;;;;;;4958008;28;20168;-70
2022/08/06 16:52:02;;;;;;;1.20;1.20;;;25.00;58.70;;;;;;4957859;28;20208;-68
2022/08/06 16:54:28;;;;;;;1.40;1.40;;;25.00;58.70;;;;;;4957685;28;20448;-70
2022/08/06 16:56:54;;;;;;;3.07;1.73;;;25.00;58.40;;;;;;4957744;28;20404;-70
2022/08/06 16:59:19;;;;;;;1.33;1.23;;;24.90;58.40;;;;;;4955789;29;20185;-69
2022/08/06 17:02:35;;;;;;;0.90;0.90;;;24.90;58.20;;;;;;4957713;29;20282;-69
2022/08/06 17:04:30;;;;;;;1.50;1.40;;;24.90;58.40;;;;;;4956563;28;20555;-69
2022/08/06 17:06:57;;;;;;;1.47;1.43;;;24.90;58.00;;;;;;4957519;29;20413;-70
2022/08/06 17:09:23;;;;;;;1.30;1.20;;;24.80;58.10;;;;;;4957615;29;20181;-70
2022/08/06 17:11:49;;;;;;;2.87;1.60;;;24.80;57.00;;;;;;4957756;29;20757;-68